Time;durP1;ratioP1;P1;durP2;ratioP2;P2;SDS_P1;SDS_P2;PMS_P1;PMS_P2;Temp;Humidity;BMP_temperature;BMP_pressure;BME280_temperature;BME280_humidity;BME280_pressure;Samples;Min_cycle;Max_cycle;Signal;HPM_P1;HPM_P2
2021/08/29 00:01:18;;;;;;;;;;;;;;;24.86;62.59;100158.84;5014056;28;1407;-47
2021/08/29 00:03:45;;;;;;;;;;;;;;;24.86;61.86;100148.84;5013834;28;1276;-47
2021/08/29 00:06:11;;;;;;;;;;;;;;;24.83;62.58;100149.25;5013833;28;1041;-47
2021/08/29 00:08:38;;;;;;;;;;;;;;;24.82;62.60;100128.63;5014012;28;1082;-47
2021/08/29 00:11:05;;;;;;;;;;;;;;;24.85;61.66;100125.56;5014043;28;1012;-47
2021/08/29 00:13:32;;;;;;;;;;;;;;;24.86;62.19;100120.97;5014275;28;1004;-47
2021/08/29 00:15:58;;;;;;;;;;;;;;;24.83;62.07;100108.69;5013635;28;1910;-47
2021/08/29 00:18:25;;;;;;;;;;;;;;;24.80;62.24;100101.78;5013976;28;1091;-47
2021/08/29 00:20:51;;;;;;;;;;;;;;;24.85;62.10;100113.88;5013913;28;1003;-47
2021/08/29 00:23:18;;;;;;;;;;;;;;;24.81;62.16;100106.16;5013971;28;1071;-47
2021/08/29 00:25:44;;;;;;;;;;;;;;;24.84;62.10;100107.63;5013620;28;1099;-47
2021/08/29 00:28:12;;;;;;;;;;;;;;;24.82;61.75;100107.00;5013943;28;1093;-47
2021/08/29 00:30:39;;;;;;;;;;;;;;;24.82;62.64;100107.00;5013546;28;1171;-47
2021/08/29 00:33:05;;;;;;;;;;;;;;;24.80;62.38;100095.53;5013499;28;1072;-47
2021/08/29 00:35:33;;;;;;;;;;;;;;;24.85;62.53;100097.66;5013785;28;1902;-47
2021/08/29 00:38:00;;;;;;;;;;;;;;;24.83;61.95;100088.88;5013418;28;1072;-47
2021/08/29 00:40:26;;;;;;;;;;;;;;;24.79;61.79;100077.66;5014066;28;1082;-47
2021/08/29 00:42:53;;;;;;;;;;;;;;;24.84;62.01;100091.41;5013801;28;1007;-47
2021/08/29 00:45:22;;;;;;;;;;;;;;;24.83;62.14;100086.19;5013879;28;1085;-47
2021/08/29 00:47:49;;;;;;;;;;;;;;;24.82;61.77;100079.94;5014505;28;1078;-47
2021/08/29 00:50:16;;;;;;;;;;;;;;;24.81;61.80;100068.31;5017653;28;1035;-47
2021/08/29 00:52:42;;;;;;;;;;;;;;;24.84;62.13;100085.19;5017832;28;1074;-46
2021/08/29 00:55:10;;;;;;;;;;;;;;;24.81;61.86;100070.19;5017426;28;1906;-47
2021/08/29 00:57:36;;;;;;;;;;;;;;;24.83;62.56;100072.66;5017488;28;1086;-46
2021/08/29 01:00:03;;;;;;;;;;;;;;;24.85;61.76;100068.75;5017144;28;1088;-47
2021/08/29 01:02:32;;;;;;;;;;;;;;;24.83;62.06;100078.94;5017146;28;1383;-48
2021/08/29 01:05:00;;;;;;;;;;;;;;;24.79;62.39;100056.00;5017068;28;1262;-47
2021/08/29 01:07:31;;;;;;;;;;;;;;;24.79;61.83;100064.13;5017368;28;1086;-47
2021/08/29 01:09:59;;;;;;;;;;;;;;;24.83;62.59;100073.53;5017269;28;1078;-47
2021/08/29 01:12:27;;;;;;;;;;;;;;;24.79;61.85;100053.31;5017446;28;1069;-47
2021/08/29 01:14:55;;;;;;;;;;;;;;;24.81;62.64;100064.78;5016799;28;1902;-47
2021/08/29 01:17:25;;;;;;;;;;;;;;;24.79;61.90;100054.13;5016869;28;1111;-47
2021/08/29 01:19:57;;;;;;;;;;;;;;;24.78;62.12;100041.63;5017011;28;1085;-47
2021/08/29 01:22:24;;;;;;;;;;;;;;;24.80;62.00;100049.56;5016736;28;1143;-46
2021/08/29 01:24:51;;;;;;;;;;;;;;;24.82;61.95;100055.63;5017019;28;1090;-47
2021/08/29 01:27:20;;;;;;;;;;;;;;;24.78;61.96;100048.91;5016944;28;991;-46
2021/08/29 01:29:48;;;;;;;;;;;;;;;24.81;61.67;100053.94;5016574;28;1132;-46
2021/08/29 01:32:16;;;;;;;;;;;;;;;24.79;62.04;100056.00;5016791;28;1003;-47
2021/08/29 01:34:43;;;;;;;;;;;;;;;24.79;62.49;100048.72;5016422;28;1903;-47
2021/08/29 01:37:11;;;;;;;;;;;;;;;24.79;62.26;100056.00;5016755;28;1036;-47
2021/08/29 01:39:39;;;;;;;;;;;;;;;24.78;61.92;100048.91;5016718;28;1102;-46
2021/08/29 01:42:05;;;;;;;;;;;;;;;24.83;61.89;100046.50;5016344;28;944;-47
2021/08/29 01:44:32;;;;;;;;;;;;;;;24.80;62.18;100039.56;5016558;28;1089;-47
2021/08/29 01:47:00;;;;;;;;;;;;;;;24.84;62.37;100053.56;5016566;28;1070;-47
2021/08/29 01:49:27;;;;;;;;;;;;;;;24.79;62.68;100035.22;5016234;28;1139;-47
2021/08/29 01:51:54;;;;;;;;;;;;;;;24.81;61.80;100035.03;5016474;28;1003;-47
2021/08/29 01:54:20;;;;;;;;;;;;;;;24.83;62.71;100043.78;5016173;28;1144;-46
2021/08/29 01:57:04;;;;;;;;;;;;;;;24.78;62.05;100030.81;5016226;28;1910;-47
2021/08/29 01:59:31;;;;;;;;;;;;;;;24.78;62.64;100044.34;5014895;28;1187;-47
2021/08/29 02:01:58;;;;;;;;;;;;;;;24.83;61.82;100035.66;5108578;23;3787;-47
2021/08/29 02:04:26;;;;;;;;;;;;;;;24.79;61.84;100037.09;5015950;28;934;-48
2021/08/29 02:06:57;;;;;;;;;;;;;;;24.78;61.96;100046.22;5016254;28;1066;-47
2021/08/29 02:09:27;;;;;;;;;;;;;;;24.81;61.76;100049.38;5016237;28;1085;-47
2021/08/29 02:11:54;;;;;;;;;;;;;;;24.78;61.91;100051.63;5016188;28;1003;-47
2021/08/29 02:14:21;;;;;;;;;;;;;;;24.84;62.73;100055.44;5015752;28;1162;-47
2021/08/29 02:16:49;;;;;;;;;;;;;;;24.80;62.34;100047.69;5016002;28;1906;-47
2021/08/29 02:19:19;;;;;;;;;;;;;;;24.80;62.05;100041.44;5015959;28;1167;-47
2021/08/29 02:21:47;;;;;;;;;;;;;;;24.78;62.62;100040.81;5015921;28;1105;-48
2021/08/29 02:24:14;;;;;;;;;;;;;;;24.78;62.11;100043.50;5015957;28;1055;-47
2021/08/29 02:26:40;;;;;;;;;;;;;;;24.83;62.49;100061.84;5015522;28;1158;-48
2021/08/29 02:29:09;;;;;;;;;;;;;;;24.78;62.26;100046.22;5015839;28;1056;-47
2021/08/29 02:31:35;;;;;;;;;;;;;;;24.80;61.95;100055.78;5015472;28;1006;-47
2021/08/29 02:34:02;;;;;;;;;;;;;;;24.81;62.41;100059.34;5015608;28;1195;-47
2021/08/29 02:36:29;;;;;;;;;;;;;;;24.81;61.88;100054.78;5015576;28;1906;-47
2021/08/29 02:38:57;;;;;;;;;;;;;;;24.79;61.92;100050.59;5015250;28;967;-47
2021/08/29 02:41:23;;;;;;;;;;;;;;;24.81;61.97;100059.34;5015578;28;1071;-47
2021/08/29 02:43:50;;;;;;;;;;;;;;;24.82;62.46;100066.44;5015178;28;1162;-48
2021/08/29 02:46:17;;;;;;;;;;;;;;;24.79;61.96;100062.25;5015170;28;1076;-47
2021/08/29 02:48:45;;;;;;;;;;;;;;;24.78;61.73;100065.13;5015460;28;1086;-48
2021/08/29 02:51:12;;;;;;;;;;;;;;;24.77;62.31;100063.44;5015380;28;1134;-47
2021/08/29 02:53:40;;;;;;;;;;;;;;;24.78;61.93;100065.13;5014958;28;1038;-47
2021/08/29 02:56:08;;;;;;;;;;;;;;;24.79;62.25;100069.53;5014935;28;1976;-47
2021/08/29 02:58:35;;;;;;;;;;;;;;;24.78;62.00;100054.31;5015319;28;2071;-47
2021/08/29 03:01:02;;;;;;;;;;;;;;;24.78;62.04;100057.03;5015280;28;1007;-47
2021/08/29 03:03:29;;;;;;;;;;;;;;;24.81;62.52;100054.78;5014845;28;1305;-48
2021/08/29 03:05:56;;;;;;;;;;;;;;;24.74;62.00;100036.81;5015241;28;1004;-47
2021/08/29 03:08:22;;;;;;;;;;;;;;;24.77;62.30;100050.78;5015098;28;1088;-48
2021/08/29 03:10:49;;;;;;;;;;;;;;;24.76;61.91;100049.09;5014453;28;1178;-48
2021/08/29 03:13:18;;;;;;;;;;;;;;;24.79;62.76;100056.00;5014705;28;1099;-47
2021/08/29 03:15:45;;;;;;;;;;;;;;;24.77;62.13;100053.50;5014598;28;2370;-47
2021/08/29 03:18:11;;;;;;;;;;;;;;;24.77;61.80;100055.34;5014866;28;1008;-47
2021/08/29 03:20:38;;;;;;;;;;;;;;;24.76;61.91;100050.97;5014875;28;999;-48
2021/08/29 03:23:05;;;;;;;;;;;;;;;24.80;62.46;100058.50;5014579;28;1088;-47
2021/08/29 03:25:32;;;;;;;;;;;;;;;24.76;62.06;100061.78;5014790;28;1027;-48
2021/08/29 03:27:58;;;;;;;;;;;;;;;24.77;61.78;100068.84;5014846;28;1092;-47
2021/08/29 03:30:26;;;;;;;;;;;;;;;24.76;62.62;100061.78;5014371;28;1154;-47
2021/08/29 03:32:53;;;;;;;;;;;;;;;24.81;62.84;100072.88;5014667;28;988;-47
2021/08/29 03:35:20;;;;;;;;;;;;;;;24.79;61.97;100066.81;5014554;28;1977;-47
2021/08/29 03:37:47;;;;;;;;;;;;;;;24.79;62.12;100064.13;5014774;28;1074;-47
2021/08/29 03:40:14;;;;;;;;;;;;;;;24.75;62.06;100062.81;5014260;28;1072;-47
2021/08/29 03:42:41;;;;;;;;;;;;;;;24.75;61.87;100062.81;5014462;28;1012;-47
2021/08/29 03:45:08;;;;;;;;;;;;;;;24.71;61.89;100045.28;5014122;28;1091;-48
2021/08/29 03:47:37;;;;;;;;;;;;;;;24.78;62.44;100065.13;5014458;28;1055;-48
2021/08/29 03:50:04;;;;;;;;;;;;;;;24.73;62.74;100052.19;5014392;28;995;-47
2021/08/29 03:52:31;;;;;;;;;;;;;;;24.75;62.05;100060.97;5014646;28;1000;-47
2021/08/29 03:54:57;;;;;;;;;;;;;;;24.76;62.14;100061.78;5014272;28;1007;-47
2021/08/29 03:57:24;;;;;;;;;;;;;;;24.79;62.23;100072.25;5013931;28;1903;-47
2021/08/29 03:59:51;;;;;;;;;;;;;;;24.75;61.95;100068.22;5014469;28;1031;-47
2021/08/29 04:02:17;;;;;;;;;;;;;;;24.77;62.46;100066.16;5013802;28;1385;-47
2021/08/29 04:04:45;;;;;;;;;;;;;;;24.75;61.89;100070.91;5013849;28;1084;-48
2021/08/29 04:07:15;;;;;;;;;;;;;;;24.78;61.97;100081.34;5013852;28;1135;-47
2021/08/29 04:09:41;;;;;;;;;;;;;;;24.79;62.78;100083.06;5013809;28;1096;-47
2021/08/29 04:12:08;;;;;;;;;;;;;;;24.78;62.11;100079.47;5013808;28;1083;-47
2021/08/29 04:14:35;;;;;;;;;;;;;;;24.77;62.32;100079.66;5014142;28;1047;-47
2021/08/29 04:17:03;;;;;;;;;;;;;;;24.76;62.44;100078.00;5013883;28;1977;-48
2021/08/29 04:19:30;;;;;;;;;;;;;;;24.73;62.08;100067.56;5014026;28;1036;-48
2021/08/29 04:21:58;;;;;;;;;;;;;;;24.76;62.91;100078.84;5013389;28;1083;-47
2021/08/29 04:24:25;;;;;;;;;;;;;;;24.75;61.86;100071.78;5013589;28;1083;-47
2021/08/29 04:26:51;;;;;;;;;;;;;;;24.73;62.17;100063.00;5014158;28;1008;-47
2021/08/29 04:29:18;;;;;;;;;;;;;;;24.74;62.72;100059.25;5013834;28;1028;-47
2021/08/29 04:31:45;;;;;;;;;;;;;;;24.72;62.18;100071.31;5013876;28;1004;-47
2021/08/29 04:34:12;;;;;;;;;;;;;;;24.75;62.01;100076.31;5013947;28;1093;-47
2021/08/29 04:36:39;;;;;;;;;;;;;;;24.74;62.87;100075.50;5013461;28;1906;-47
2021/08/29 04:39:08;;;;;;;;;;;;;;;24.78;62.76;100070.53;5013739;28;2046;-47
2021/08/29 04:41:35;;;;;;;;;;;;;;;24.73;62.39;100076.53;5013747;28;1061;-47
2021/08/29 04:44:02;;;;;;;;;;;;;;;24.78;62.63;100089.47;5013487;28;1059;-47
2021/08/29 04:46:28;;;;;;;;;;;;;;;24.72;62.27;100076.72;5013697;28;1044;-47
2021/08/29 04:48:55;;;;;;;;;;;;;;;24.73;62.40;100084.66;5013762;28;1062;-47
2021/08/29 04:51:21;;;;;;;;;;;;;;;24.72;62.08;100071.31;5013719;28;1094;-47
2021/08/29 04:53:48;;;;;;;;;;;;;;;24.75;62.68;100081.72;5013754;28;1079;-48
2021/08/29 04:56:15;;;;;;;;;;;;;;;24.76;62.44;100086.13;5013614;28;1907;-48
2021/08/29 04:58:42;;;;;;;;;;;;;;;24.74;61.88;100088.19;5013621;28;1078;-48
2021/08/29 05:01:08;;;;;;;;;;;;;;;24.73;62.15;100078.38;5013403;28;1451;-48
2021/08/29 05:03:35;;;;;;;;;;;;;;;24.72;62.02;100080.25;5013567;28;1003;-47
2021/08/29 05:06:02;;;;;;;;;;;;;;;24.76;62.65;100088.81;5013319;28;1057;-47
2021/08/29 05:08:28;;;;;;;;;;;;;;;24.74;62.03;100069.25;5013550;28;996;-47
2021/08/29 05:10:55;;;;;;;;;;;;;;;24.77;61.91;100085.94;5013557;28;1090;-47
2021/08/29 05:13:23;;;;;;;;;;;;;;;24.76;62.33;100081.53;5013187;28;1084;-47
2021/08/29 05:15:49;;;;;;;;;;;;;;;24.75;62.04;100070.91;5013355;28;1910;-47
2021/08/29 05:18:16;;;;;;;;;;;;;;;24.71;61.99;100075.03;5013544;28;1042;-48
2021/08/29 05:20:43;;;;;;;;;;;;;;;24.73;62.12;100072.97;5013171;28;1068;-47
2021/08/29 05:23:09;;;;;;;;;;;;;;;24.75;62.73;100079.88;5013381;28;1287;-47
2021/08/29 05:25:36;;;;;;;;;;;;;;;24.78;62.32;100079.47;5013091;28;1068;-47
2021/08/29 05:28:02;;;;;;;;;;;;;;;24.76;62.11;100056.38;5013359;28;1022;-47
2021/08/29 05:30:30;;;;;;;;;;;;;;;24.74;62.06;100063.84;5013651;28;1066;-48
2021/08/29 05:32:56;;;;;;;;;;;;;;;24.78;62.39;100075.94;5013035;28;1151;-48
2021/08/29 05:35:23;;;;;;;;;;;;;;;24.75;62.00;100065.50;5015983;28;1234;-47
2021/08/29 05:37:49;;;;;;;;;;;;;;;24.78;62.10;100075.94;5016458;28;1906;-48
2021/08/29 05:40:16;;;;;;;;;;;;;;;24.74;61.86;100063.84;5016460;28;1084;-47
2021/08/29 05:42:42;;;;;;;;;;;;;;;24.76;62.11;100067.19;5016626;28;1090;-48
2021/08/29 05:45:09;;;;;;;;;;;;;;;24.74;62.61;100064.66;5016681;28;1000;-47
2021/08/29 05:47:38;;;;;;;;;;;;;;;24.77;62.35;100085.94;5016654;28;1081;-47
2021/08/29 05:50:05;;;;;;;;;;;;;;;24.72;62.77;100077.53;5016803;28;1068;-47
2021/08/29 05:52:31;;;;;;;;;;;;;;;24.76;62.11;100083.41;5016722;28;1012;-47
2021/08/29 05:54:57;;;;;;;;;;;;;;;24.74;62.00;100075.50;5016118;28;1296;-47
2021/08/29 05:57:24;;;;;;;;;;;;;;;24.72;62.82;100072.13;5016347;28;1975;-47
2021/08/29 05:59:50;;;;;;;;;;;;;;;24.73;62.13;100062.16;5016410;28;1042;-47
2021/08/29 06:02:17;;;;;;;;;;;;;;;24.74;62.15;100059.25;5016240;28;1350;-47
2021/08/29 06:04:45;;;;;;;;;;;;;;;24.74;62.08;100053.03;5016581;28;1032;-47
2021/08/29 06:07:11;;;;;;;;;;;;;;;24.74;62.66;100051.16;5015866;28;1068;-47
2021/08/29 06:09:38;;;;;;;;;;;;;;;24.75;62.47;100054.69;5016222;28;999;-47
2021/08/29 06:12:05;;;;;;;;;;;;;;;24.74;62.60;100048.44;5015866;28;1095;-47
2021/08/29 06:14:31;;;;;;;;;;;;;;;24.75;62.45;100060.09;5016354;28;1087;-47
2021/08/29 06:16:58;;;;;;;;;;;;;;;24.75;61.94;100043.88;5015942;28;1971;-48
2021/08/29 06:19:24;;;;;;;;;;;;;;;24.73;62.17;100040.53;5015754;28;1119;-47
2021/08/29 06:21:52;;;;;;;;;;;;;;;24.79;62.38;100045.19;5015684;28;1348;-48
2021/08/29 06:24:19;;;;;;;;;;;;;;;24.73;62.07;100035.13;5015626;28;1167;-47
2021/08/29 06:26:45;;;;;;;;;;;;;;;24.76;61.92;100045.56;5015827;28;1111;-48
2021/08/29 06:29:12;;;;;;;;;;;;;;;24.75;62.64;100052.84;5015472;28;1328;-47
2021/08/29 06:31:38;;;;;;;;;;;;;;;24.74;62.15;100044.91;5015793;28;1055;-48
2021/08/29 06:34:05;;;;;;;;;;;;;;;24.74;62.06;100053.84;5015780;28;1003;-48
2021/08/29 06:36:31;;;;;;;;;;;;;;;24.75;61.99;100047.44;5015633;28;1886;-47
2021/08/29 06:38:59;;;;;;;;;;;;;;;24.76;62.09;100056.38;5015713;28;2045;-48
2021/08/29 06:41:25;;;;;;;;;;;;;;;24.73;61.99;100052.19;5015527;28;1098;-48
2021/08/29 06:43:53;;;;;;;;;;;;;;;24.78;62.12;100065.97;5015549;28;999;-48
2021/08/29 06:46:20;;;;;;;;;;;;;;;24.78;62.19;100075.94;5014920;28;999;-47
2021/08/29 06:48:46;;;;;;;;;;;;;;;24.73;62.14;100072.97;5015492;28;1070;-47
2021/08/29 06:51:13;;;;;;;;;;;;;;;24.73;62.09;100078.38;5015144;28;1095;-47
2021/08/29 06:53:39;;;;;;;;;;;;;;;24.75;62.22;100082.59;5015309;28;1045;-48
2021/08/29 06:56:07;;;;;;;;;;;;;;;24.75;62.42;100088.00;5015318;28;1020;-47
2021/08/29 06:58:33;;;;;;;;;;;;;;;24.75;62.38;100104.22;5014887;28;1906;-48
2021/08/29 07:01:00;;;;;;;;;;;;;;;24.77;62.70;100095.91;5014957;28;1132;-47
2021/08/29 07:03:26;;;;;;;;;;;;;;;24.73;62.42;100095.47;5014607;28;1369;-47
2021/08/29 07:05:53;;;;;;;;;;;;;;;24.78;62.44;100103.00;5015056;28;1059;-48
2021/08/29 07:08:19;;;;;;;;;;;;;;;24.74;62.29;100086.31;5015455;28;2060;-47
2021/08/29 07:10:46;;;;;;;;;;;;;;;24.75;62.39;100089.84;5014989;28;1155;-48
2021/08/29 07:13:13;;;;;;;;;;;;;;;24.74;62.40;100080.91;5015010;28;991;-48
2021/08/29 07:15:41;;;;;;;;;;;;;;;24.74;62.06;100082.78;5014641;28;1120;-48
2021/08/29 07:18:07;;;;;;;;;;;;;;;24.74;62.67;100077.38;5014478;28;1906;-48
2021/08/29 07:20:34;;;;;;;;;;;;;;;24.74;62.17;100080.06;5014945;28;1090;-48
2021/08/29 07:23:00;;;;;;;;;;;;;;;24.79;63.05;100096.56;5014844;28;1003;-47
2021/08/29 07:25:27;;;;;;;;;;;;;;;24.74;62.56;100080.06;5015238;28;1949;-48
2021/08/29 07:27:53;;;;;;;;;;;;;;;24.74;62.16;100086.31;5014815;28;1082;-48
2021/08/29 07:30:21;;;;;;;;;;;;;;;24.76;62.66;100089.66;5014404;28;1108;-48
2021/08/29 07:32:48;;;;;;;;;;;;;;;24.74;62.31;100105.22;5014646;28;1094;-47
2021/08/29 07:35:14;;;;;;;;;;;;;;;24.73;62.23;100089.19;5014884;28;1015;-48
2021/08/29 07:37:42;;;;;;;;;;;;;;;24.75;62.81;100095.25;5014550;28;1996;-48
2021/08/29 07:40:10;;;;;;;;;;;;;;;24.73;62.77;100084.66;5014581;28;1015;-48
2021/08/29 07:42:36;;;;;;;;;;;;;;;24.73;62.22;100091.91;5014917;28;1004;-47
2021/08/29 07:45:03;;;;;;;;;;;;;;;24.75;62.27;100097.94;5014502;28;998;-47
2021/08/29 07:47:31;;;;;;;;;;;;;;;24.73;62.70;100094.59;5014447;28;1066;-47
2021/08/29 07:49:58;;;;;;;;;;;;;;;24.74;62.17;100088.19;5014136;28;1127;-47
2021/08/29 07:52:24;;;;;;;;;;;;;;;24.75;63.07;100104.22;5014086;28;1080;-47
2021/08/29 07:54:51;;;;;;;;;;;;;;;24.76;62.27;100094.22;5014185;28;1955;-48
2021/08/29 07:57:17;;;;;;;;;;;;;;;24.77;62.72;100090.50;5013422;28;1906;-47
2021/08/29 07:59:44;;;;;;;;;;;;;;;24.71;62.28;100091.25;5014476;28;1043;-47
2021/08/29 08:02:11;;;;;;;;;;;;;;;24.74;62.50;100090.88;5013678;28;1403;-48
2021/08/29 08:04:39;;;;;;;;;;;;;;;24.77;62.62;100101.31;5013885;28;939;-47
2021/08/29 08:07:06;;;;;;;;;;;;;;;24.76;63.01;100102.34;5013820;28;1060;-47
2021/08/29 08:09:32;;;;;;;;;;;;;;;24.74;62.75;100089.00;5014098;28;1012;-47
2021/08/29 08:11:58;;;;;;;;;;;;;;;24.73;62.17;100083.78;5014136;28;1102;-47
2021/08/29 08:14:25;;;;;;;;;;;;;;;24.76;62.17;100088.81;5013786;28;1103;-47
2021/08/29 08:16:51;;;;;;;;;;;;;;;24.76;62.99;100080.72;5013673;28;1975;-48
2021/08/29 08:19:18;;;;;;;;;;;;;;;24.79;62.22;100083.06;5014004;28;1071;-48
2021/08/29 08:21:46;;;;;;;;;;;;;;;24.78;62.19;100081.34;5014240;28;1083;-48
2021/08/29 08:24:12;;;;;;;;;;;;;;;24.77;62.19;100052.63;5014018;28;1057;-48
2021/08/29 08:26:39;;;;;;;;;;;;;;;24.77;62.24;100052.63;5013640;28;1116;-47
2021/08/29 08:29:05;;;;;;;;;;;;;;;24.79;62.59;100066.81;5013919;28;1004;-48
2021/08/29 08:31:32;;;;;;;;;;;;;;;24.81;62.28;100075.59;5013559;28;1119;-48
2021/08/29 08:33:58;;;;;;;;;;;;;;;24.78;62.16;100081.34;5013897;28;1000;-47
2021/08/29 08:36:25;;;;;;;;;;;;;;;24.74;62.13;100074.66;5013902;28;1077;-48
2021/08/29 08:38:52;;;;;;;;;;;;;;;24.78;62.03;100084.06;5013676;28;1975;-48
2021/08/29 08:41:19;;;;;;;;;;;;;;;24.76;62.21;100086.94;5013679;28;1210;-48
2021/08/29 08:43:46;;;;;;;;;;;;;;;24.78;62.93;100092.19;5013765;28;1086;-47
2021/08/29 08:46:12;;;;;;;;;;;;;;;24.78;62.08;100089.47;5013761;28;1016;-47
2021/08/29 08:48:39;;;;;;;;;;;;;;;24.81;62.33;100102.63;5013445;28;1162;-48
2021/08/29 08:51:08;;;;;;;;;;;;;;;24.78;62.20;100098.41;5013754;28;1071;-47
2021/08/29 08:53:37;;;;;;;;;;;;;;;24.76;62.01;100089.66;5013684;28;1086;-47
2021/08/29 08:56:05;;;;;;;;;;;;;;;24.78;62.17;100092.19;5013673;28;1085;-47
2021/08/29 08:58:39;;;;;;;;;;;;;;;24.83;62.44;100100.56;5013577;28;1910;-48
2021/08/29 09:01:06;;;;;;;;;;;;;;;24.83;62.83;100110.53;5013643;28;1086;-47
2021/08/29 09:03:32;;;;;;;;;;;;;;;24.77;61.87;100087.78;5013061;28;1935;-47
2021/08/29 09:05:59;;;;;;;;;;;;;;;24.81;62.96;100099.94;5013577;28;1089;-47
2021/08/29 09:08:26;;;;;;;;;;;;;;;24.81;62.13;100102.63;5012680;28;996;-48
2021/08/29 09:10:53;;;;;;;;;;;;;;;24.83;62.54;100089.75;5016301;28;1000;-48
2021/08/29 09:13:21;;;;;;;;;;;;;;;24.78;62.65;100092.19;5016948;28;1076;-48
2021/08/29 09:15:47;;;;;;;;;;;;;;;24.78;62.09;100081.34;5017220;28;1079;-47
2021/08/29 09:18:14;;;;;;;;;;;;;;;24.84;62.58;100090.59;5016898;28;1979;-48
2021/08/29 09:20:41;;;;;;;;;;;;;;;24.83;62.17;100087.03;5016778;28;991;-48
2021/08/29 09:23:08;;;;;;;;;;;;;;;24.81;61.96;100079.13;5015915;28;1095;-48
2021/08/29 09:25:40;;;;;;;;;;;;;;;24.81;62.19;100081.81;5014916;28;1090;-48
2021/08/29 09:28:09;;;;;;;;;;;;;;;24.81;62.42;100091.81;5014965;28;1123;-48
2021/08/29 09:30:41;;;;;;;;;;;;;;;24.82;62.15;100088.06;5015320;28;1055;-48
2021/08/29 09:33:07;;;;;;;;;;;;;;;24.81;62.55;100086.41;5015381;28;726;-48
2021/08/29 09:35:35;;;;;;;;;;;;;;;24.84;62.75;100082.47;5016086;28;1066;-48
2021/08/29 09:38:02;;;;;;;;;;;;;;;24.84;62.01;100068.94;5016263;28;1906;-48
2021/08/29 09:40:29;;;;;;;;;;;;;;;24.85;61.81;100078.72;5017015;28;1089;-48
2021/08/29 09:42:56;;;;;;;;;;;;;;;24.85;62.79;100089.53;5016403;28;1075;-47
2021/08/29 09:45:24;;;;;;;;;;;;;;;24.88;62.82;100086.47;5016403;28;1079;-48
2021/08/29 09:47:53;;;;;;;;;;;;;;;24.85;61.79;100078.72;5016689;28;998;-47
2021/08/29 09:50:21;;;;;;;;;;;;;;;24.91;62.29;100078.81;5016627;28;1000;-47
2021/08/29 09:52:47;;;;;;;;;;;;;;;24.84;62.50;100075.19;5016578;28;1004;-47
2021/08/29 09:55:14;;;;;;;;;;;;;;;24.89;62.33;100083.56;5016456;28;1007;-47
2021/08/29 09:57:41;;;;;;;;;;;;;;;24.92;61.88;100074.25;5016395;28;1969;-47
2021/08/29 10:00:08;;;;;;;;;;;;;;;24.90;62.45;100069.00;5016421;28;1084;-47
2021/08/29 10:02:35;;;;;;;;;;;;;;;24.92;62.52;100056.13;5016070;28;1331;-47
2021/08/29 10:05:13;;;;;;;;;;;;;;;24.94;61.56;100077.59;5016049;28;1119;-47
2021/08/29 10:07:55;;;;;;;;;;;;;;;24.92;61.76;100069.66;5016558;28;1011;-47
2021/08/29 10:10:22;;;;;;;;;;;;;;;24.94;61.81;100070.31;5016485;28;1078;-47
2021/08/29 10:12:49;;;;;;;;;;;;;;;24.93;62.21;100079.47;5015887;28;1103;-47
2021/08/29 10:15:17;;;;;;;;;;;;;;;24.95;62.44;100088.22;5015831;28;1147;-47
2021/08/29 10:17:44;;;;;;;;;;;;;;;24.91;61.85;100076.09;5015935;28;1902;-48
2021/08/29 10:20:13;;;;;;;;;;;;;;;24.95;62.31;100088.22;5014983;28;1095;-47
2021/08/29 10:22:40;;;;;;;;;;;;;;;24.90;61.87;100076.28;5015848;28;1078;-47
2021/08/29 10:25:07;;;;;;;;;;;;;;;24.96;62.82;100083.63;5015956;28;1946;-47
2021/08/29 10:27:34;;;;;;;;;;;;;;;24.90;62.36;100074.41;5015909;28;2056;-47
2021/08/29 10:30:02;;;;;;;;;;;;;;;24.91;62.33;100076.09;5015999;28;996;-47
2021/08/29 10:32:34;;;;;;;;;;;;;;;24.89;62.61;100072.75;5015739;28;1083;-47
2021/08/29 10:35:07;;;;;;;;;;;;;;;24.88;62.64;100081.88;5016030;28;1028;-47
2021/08/29 10:37:35;;;;;;;;;;;;;;;24.92;62.54;100085.06;5015630;28;1914;-47
2021/08/29 10:40:02;;;;;;;;;;;;;;;24.87;62.28;100069.41;5015696;28;1081;-47
2021/08/29 10:42:29;;;;;;;;;;;;;;;24.90;62.39;100074.41;5015240;28;1124;-47
2021/08/29 10:44:56;;;;;;;;;;;;;;;24.90;62.36;100073.59;5015283;28;1164;-47
2021/08/29 10:47:23;;;;;;;;;;;;;;;24.92;61.75;100063.41;5015530;28;998;-47
2021/08/29 10:49:50;;;;;;;;;;;;;;;24.96;61.81;100076.34;5015523;28;1054;-48
2021/08/29 10:52:17;;;;;;;;;;;;;;;24.93;62.48;100068.63;5015459;28;1074;-48
2021/08/29 10:54:55;;;;;;;;;;;;;;;24.92;62.62;100082.34;5015010;28;1072;-47
2021/08/29 10:57:28;;;;;;;;;;;;;;;24.91;62.42;100070.69;5015028;28;1091;-47
2021/08/29 11:00:02;;;;;;;;;;;;;;;24.93;63.01;100076.75;5015275;28;1008;-48
2021/08/29 11:02:35;;;;;;;;;;;;;;;24.93;62.59;100076.75;5014832;28;1396;-47
2021/08/29 11:05:01;;;;;;;;;;;;;;;24.95;62.82;100079.28;5015224;28;1060;-48
2021/08/29 11:07:41;;;;;;;;;;;;;;;24.90;62.30;100074.41;5014816;28;1103;-47
2021/08/29 11:10:10;;;;;;;;;;;;;;;24.93;62.87;100074.06;5014869;28;1084;-47
2021/08/29 11:12:37;;;;;;;;;;;;;;;24.94;62.78;100086.53;5014784;28;1079;-47
2021/08/29 11:15:04;;;;;;;;;;;;;;;24.94;62.06;100081.13;5015022;28;1012;-47
2021/08/29 11:17:31;;;;;;;;;;;;;;;24.95;62.91;100057.63;5014638;28;1120;-48
2021/08/29 11:20:10;;;;;;;;;;;;;;;24.92;61.88;100069.66;5014820;28;1967;-48
2021/08/29 11:22:38;;;;;;;;;;;;;;;24.97;62.62;100078.03;5015171;28;1086;-47
2021/08/29 11:25:07;;;;;;;;;;;;;;;24.95;62.22;100072.00;5014583;28;1067;-47
2021/08/29 11:27:51;;;;;;;;;;;;;;;24.94;63.04;100078.41;5014536;28;1122;-48
2021/08/29 11:30:21;;;;;;;;;;;;;;;24.91;62.91;100065.28;5014409;28;1056;-47
2021/08/29 11:32:52;;;;;;;;;;;;;;;24.96;62.35;100068.25;5014579;28;1062;-47
2021/08/29 11:35:24;;;;;;;;;;;;;;;24.93;62.87;100073.19;5014937;28;1054;-47
2021/08/29 11:38:01;;;;;;;;;;;;;;;24.91;62.69;100069.84;5014618;28;1985;-47
2021/08/29 11:40:44;;;;;;;;;;;;;;;24.95;62.09;100055.75;5014605;28;1069;-47
2021/08/29 11:43:14;;;;;;;;;;;;;;;24.92;62.25;100048.03;5014291;28;1143;-47
2021/08/29 11:45:43;;;;;;;;;;;;;;;24.95;62.05;100069.28;5014545;28;1061;-47
2021/08/29 11:48:09;;;;;;;;;;;;;;;24.93;62.30;100063.22;5014932;28;1076;-47
2021/08/29 11:50:37;;;;;;;;;;;;;;;24.96;62.68;100060.13;5014452;28;1093;-47
2021/08/29 11:53:03;;;;;;;;;;;;;;;25.02;62.91;100045.84;5014420;28;992;-47
2021/08/29 11:55:30;;;;;;;;;;;;;;;24.94;61.99;100056.78;5013980;28;1092;-47
2021/08/29 11:57:56;;;;;;;;;;;;;;;24.92;61.82;100060.72;5013920;28;1905;-47
2021/08/29 12:00:24;;;;;;;;;;;;;;;24.95;61.89;100053.06;5014270;28;1047;-47
2021/08/29 12:02:54;;;;;;;;;;;;;;;24.96;62.46;100051.19;5013635;28;1345;-47
2021/08/29 12:05:21;;;;;;;;;;;;;;;24.97;62.36;100050.16;5014205;28;1034;-47
2021/08/29 12:07:53;;;;;;;;;;;;;;;24.98;62.31;100057.25;5013899;28;1919;-48
2021/08/29 12:10:20;;;;;;;;;;;;;;;25.00;62.72;100058.72;5013854;28;1150;-47
2021/08/29 12:12:47;;;;;;;;;;;;;;;25.00;62.00;100052.47;5014135;28;1082;-47
2021/08/29 12:15:14;;;;;;;;;;;;;;;25.00;62.58;100053.31;5013787;28;1146;-47
2021/08/29 12:17:41;;;;;;;;;;;;;;;25.02;62.20;100053.13;5013718;28;1178;-48
2021/08/29 12:20:10;;;;;;;;;;;;;;;25.00;62.34;100049.75;5013990;28;1902;-47
2021/08/29 12:22:37;;;;;;;;;;;;;;;25.01;62.67;100044.16;5014134;28;1039;-47
2021/08/29 12:25:04;;;;;;;;;;;;;;;25.05;61.82;100039.22;5013682;28;1079;-47
2021/08/29 12:27:30;;;;;;;;;;;;;;;25.00;62.46;100047.88;5013939;28;1063;-47
2021/08/29 12:29:58;;;;;;;;;;;;;;;25.04;61.95;100042.09;5013536;28;1136;-47
2021/08/29 12:32:25;;;;;;;;;;;;;;;25.05;62.29;100057.28;5013604;28;1522;-47
2021/08/29 12:34:52;;;;;;;;;;;;;;;25.05;62.48;100050.03;5013905;28;1069;-47
2021/08/29 12:37:21;;;;;;;;;;;;;;;25.04;62.87;100048.34;5013545;28;1159;-47
2021/08/29 12:39:55;;;;;;;;;;;;;;;25.04;62.63;100052.94;5013781;28;1910;-47
2021/08/29 12:42:22;;;;;;;;;;;;;;;24.97;63.04;100045.59;5013747;28;1000;-48
2021/08/29 12:44:49;;;;;;;;;;;;;;;24.93;62.51;100041.59;5016205;28;1059;-48
2021/08/29 12:47:16;;;;;;;;;;;;;;;24.96;62.35;100053.88;5017787;28;1003;-47
2021/08/29 12:49:43;;;;;;;;;;;;;;;24.92;62.54;100042.59;5017740;28;1078;-47